createdAt,value
2022-11-20T00:00:50.000Z,16.17
2022-11-20T00:03:38.519Z,16.17
2022-11-20T00:06:29.321Z,16.87
2022-11-20T00:09:17.785Z,15.17
2022-11-20T00:12:06.718Z,16.53
2022-11-20T00:14:55.181Z,17.47
2022-11-20T00:17:43.642Z,15.90
2022-11-20T00:20:32.067Z,16.60
2022-11-20T00:23:22.039Z,15.33
2022-11-20T00:26:12.456Z,15.87
2022-11-20T00:29:02.435Z,15.70
2022-11-20T00:31:50.904Z,17.20
2022-11-20T00:34:39.382Z,16.33
2022-11-20T00:37:27.954Z,16.63
2022-11-20T00:40:17.757Z,15.27
2022-11-20T00:43:06.169Z,15.57
2022-11-20T00:45:58.763Z,17.33
2022-11-20T00:48:47.706Z,15.90
2022-11-20T00:51:36.142Z,16.90
2022-11-20T00:54:24.631Z,15.30
2022-11-20T00:57:14.413Z,15.93
2022-11-20T01:00:02.872Z,14.97
2022-11-20T01:02:51.316Z,15.67
2022-11-20T01:05:39.765Z,16.53
2022-11-20T01:08:31.675Z,17.43
2022-11-20T01:11:21.802Z,16.57
2022-11-20T01:14:14.214Z,17.13
2022-11-20T01:17:02.661Z,16.47
2022-11-20T01:19:51.659Z,18.67
2022-11-20T01:22:40.235Z,15.93
2022-11-20T01:25:28.724Z,16.10
2022-11-20T01:28:17.199Z,15.70
2022-11-20T01:31:15.247Z,15.87
2022-11-20T01:34:06.190Z,16.37
2022-11-20T01:36:54.818Z,16.07
2022-11-20T01:39:43.297Z,17.07
2022-11-20T01:42:49.513Z,16.10
2022-11-20T01:45:55.141Z,14.90
2022-11-20T01:48:51.210Z,14.00
2022-11-20T01:51:42.430Z,13.87
2022-11-20T01:54:35.875Z,13.60
2022-11-20T01:57:25.260Z,15.57
2022-11-20T02:00:17.192Z,14.63
2022-11-20T02:03:09.542Z,13.17
2022-11-20T02:06:04.682Z,15.17
2022-11-20T02:08:53.197Z,13.97
2022-11-20T02:11:41.600Z,13.87
2022-11-20T02:14:29.227Z,12.90
2022-11-20T02:17:17.798Z,12.00
2022-11-20T02:20:07.165Z,11.43
2022-11-20T02:22:59.622Z,11.87
2022-11-20T02:25:49.690Z,11.70
2022-11-20T02:28:38.162Z,11.83
2022-11-20T02:31:26.881Z,10.60
2022-11-20T02:34:15.317Z,11.67
2022-11-20T02:37:03.921Z,10.53
2022-11-20T02:39:53.428Z,11.00
2022-11-20T02:42:43.225Z,11.30
2022-11-20T02:45:31.662Z,11.03
2022-11-20T02:48:20.079Z,11.90
2022-11-20T02:51:08.586Z,11.77
2022-11-20T02:53:57.098Z,11.20
2022-11-20T02:56:45.842Z,11.70
2022-11-20T02:59:35.949Z,10.00
2022-11-20T03:02:24.406Z,11.63
2022-11-20T03:05:12.859Z,10.27
2022-11-20T03:08:01.323Z,10.20
2022-11-20T03:10:49.752Z,8.83
2022-11-20T03:13:38.166Z,9.20
2022-11-20T03:16:27.987Z,8.60
2022-11-20T03:19:16.425Z,8.00
2022-11-20T03:22:04.856Z,8.73
2022-11-20T03:24:53.250Z,8.60
2022-11-20T03:27:41.717Z,9.00
2022-11-20T03:30:30.870Z,8.23
2022-11-20T03:33:20.857Z,8.40
2022-11-20T03:36:11.623Z,7.53
2022-11-20T03:39:00.527Z,7.70
2022-11-20T03:41:49.011Z,7.80
2022-11-20T03:44:37.450Z,6.57
2022-11-20T03:47:25.962Z,6.63
2022-11-20T03:50:16.084Z,7.03
2022-11-20T03:53:04.538Z,7.53
2022-11-20T03:55:53.511Z,7.10
2022-11-20T03:58:42.581Z,7.20
2022-11-20T04:01:33.391Z,7.50
2022-11-20T04:04:21.937Z,7.17
2022-11-20T04:07:11.742Z,6.90
2022-11-20T04:10:00.200Z,6.40
2022-11-20T04:12:48.677Z,7.23
2022-11-20T04:15:38.613Z,7.03
2022-11-20T04:18:27.181Z,6.83
2022-11-20T04:21:15.680Z,7.20
2022-11-20T04:24:06.065Z,6.40
2022-11-20T04:26:54.496Z,6.63
2022-11-20T04:29:42.910Z,7.10
2022-11-20T04:32:31.388Z,6.93
2022-11-20T04:35:19.838Z,7.13
2022-11-20T04:38:08.303Z,7.33
2022-11-20T04:41:00.223Z,6.27
2022-11-20T04:43:49.862Z,6.73
2022-11-20T04:46:40.287Z,5.80
2022-11-20T04:49:28.808Z,7.50
2022-11-20T04:52:17.334Z,7.17
2022-11-20T04:55:06.648Z,6.60
2022-11-20T04:57:56.479Z,7.23
2022-11-20T05:00:44.976Z,6.00
2022-11-20T05:03:35.542Z,6.77
2022-11-20T05:06:26.987Z,6.47
2022-11-20T05:09:15.457Z,7.00
2022-11-20T05:12:03.997Z,6.53
2022-11-20T05:14:53.774Z,6.30
2022-11-20T05:17:42.466Z,6.50
2022-11-20T05:20:30.961Z,6.63
2022-11-20T05:23:19.430Z,6.50
2022-11-20T05:26:08.758Z,6.67
2022-11-20T05:28:57.238Z,6.10
2022-11-20T05:31:47.002Z,5.63
2022-11-20T05:34:35.484Z,5.17
2022-11-20T05:37:24.009Z,5.40
2022-11-20T05:40:13.758Z,6.03
2022-11-20T05:43:02.424Z,5.50
2022-11-20T05:45:55.368Z,5.00
2022-11-20T05:48:45.952Z,5.60
2022-11-20T05:51:34.456Z,5.00
2022-11-20T05:54:22.873Z,5.57
2022-11-20T05:57:11.297Z,5.00
2022-11-20T05:59:59.739Z,5.00
2022-11-20T06:02:48.214Z,4.60
2022-11-20T06:05:38.060Z,5.00
2022-11-20T06:08:26.527Z,4.50
2022-11-20T06:11:16.144Z,4.87
2022-11-20T06:14:04.691Z,4.83
2022-11-20T06:16:53.170Z,3.90
2022-11-20T06:19:41.664Z,5.07
2022-11-20T06:22:31.489Z,4.60
2022-11-20T06:25:19.910Z,4.40
2022-11-20T06:28:08.358Z,4.40
2022-11-20T06:30:56.817Z,5.00
2022-11-20T06:33:45.687Z,4.70
2022-11-20T06:36:34.330Z,4.60
2022-11-20T06:39:24.390Z,4.10
2022-11-20T06:42:13.100Z,4.63
2022-11-20T06:45:01.589Z,4.70
2022-11-20T06:47:50.053Z,5.00
2022-11-20T06:50:38.802Z,5.17
2022-11-20T06:53:27.373Z,4.43
2022-11-20T06:56:17.220Z,4.40
2022-11-20T06:59:06.908Z,4.33
2022-11-20T07:01:55.435Z,4.23
2022-11-20T07:04:43.875Z,4.03
2022-11-20T07:07:32.329Z,4.47
2022-11-20T07:10:20.842Z,4.10
2022-11-20T07:13:10.631Z,3.67
2022-11-20T07:16:01.454Z,3.33
2022-11-20T07:18:50.980Z,3.77
2022-11-20T07:21:39.739Z,3.80
2022-11-20T07:24:28.207Z,3.83
2022-11-20T07:27:16.714Z,3.83
2022-11-20T07:30:07.879Z,3.93
2022-11-20T07:32:57.252Z,3.77
2022-11-20T07:35:45.936Z,3.83
2022-11-20T07:38:34.382Z,3.57
2022-11-20T07:41:22.832Z,3.77
2022-11-20T07:44:11.378Z,3.70
2022-11-20T07:47:01.192Z,4.00
2022-11-20T07:49:49.649Z,4.10
2022-11-20T07:52:38.178Z,3.70
2022-11-20T07:55:26.706Z,4.20
2022-11-20T07:58:15.905Z,4.20
2022-11-20T08:01:06.088Z,4.07
2022-11-20T08:04:00.389Z,3.80
2022-11-20T08:06:48.886Z,5.23
2022-11-20T08:09:37.347Z,4.53
2022-11-20T08:12:43.109Z,4.30
2022-11-20T08:15:31.624Z,5.33
2022-11-20T08:18:35.662Z,4.80
2022-11-20T08:21:25.518Z,4.50
2022-11-20T08:24:14.647Z,4.20
2022-11-20T08:27:03.134Z,5.17
2022-11-20T08:29:51.596Z,4.63
2022-11-20T08:32:40.067Z,4.70
2022-11-20T08:35:28.558Z,4.63
2022-11-20T08:38:18.409Z,4.47
2022-11-20T08:41:26.478Z,4.40
2022-11-20T08:44:14.989Z,4.67
2022-11-20T08:47:03.472Z,3.60
2022-11-20T08:49:51.954Z,5.53
2022-11-20T08:52:40.511Z,4.60
2022-11-20T08:55:30.363Z,4.53
2022-11-20T08:58:19.471Z,4.70
2022-11-20T09:01:08.328Z,4.70
2022-11-20T09:03:57.874Z,3.87
2022-11-20T09:06:52.243Z,4.80
2022-11-20T09:09:40.847Z,5.13
2022-11-20T09:12:31.334Z,4.47
2022-11-20T09:15:20.409Z,4.77
2022-11-20T09:18:09.148Z,4.10
2022-11-20T09:20:59.658Z,4.40
2022-11-20T09:23:48.451Z,4.67
2022-11-20T09:26:37.541Z,4.70
2022-11-20T09:29:27.461Z,4.80
2022-11-20T09:32:16.415Z,5.00
2022-11-20T09:35:05.591Z,4.60
2022-11-20T09:37:54.853Z,5.00
2022-11-20T09:40:48.150Z,4.93
2022-11-20T09:43:49.308Z,5.43
2022-11-20T09:46:43.657Z,5.40
2022-11-20T09:49:51.674Z,5.10
2022-11-20T09:52:46.798Z,5.17
2022-11-20T09:55:36.245Z,5.10
2022-11-20T09:58:30.432Z,5.00
2022-11-20T10:01:20.544Z,5.70
2022-11-20T10:04:15.715Z,5.73
2022-11-20T10:07:31.445Z,6.30
2022-11-20T10:10:17.543Z,6.37
2022-11-20T10:13:18.161Z,6.03
2022-11-20T10:16:16.291Z,6.50
2022-11-20T10:19:16.016Z,5.97
2022-11-20T10:22:11.864Z,6.43
2022-11-20T10:25:06.110Z,6.37
2022-11-20T10:28:05.141Z,5.57
2022-11-20T10:30:58.729Z,6.53
2022-11-20T10:34:11.126Z,6.40
2022-11-20T10:37:04.719Z,6.93
2022-11-20T10:39:57.797Z,6.60
2022-11-20T10:42:48.459Z,6.40
2022-11-20T10:45:45.668Z,6.70
2022-11-20T10:48:34.550Z,6.03
2022-11-20T10:51:35.955Z,6.37
2022-11-20T10:54:32.519Z,6.20
2022-11-20T10:57:29.010Z,6.17
2022-11-20T11:00:18.288Z,5.70
2022-11-20T11:03:21.882Z,5.60
2022-11-20T11:06:14.445Z,6.10
2022-11-20T11:09:05.537Z,6.10
2022-11-20T11:11:55.396Z,5.70
2022-11-20T11:14:45.590Z,5.87
2022-11-20T11:17:35.337Z,6.07
2022-11-20T11:20:25.804Z,5.10
2022-11-20T11:23:31.455Z,5.50
2022-11-20T11:26:22.353Z,5.33
2022-11-20T11:29:20.336Z,4.83
2022-11-20T11:32:10.637Z,5.30
2022-11-20T11:35:03.051Z,4.90
2022-11-20T11:37:52.171Z,3.90
2022-11-20T11:40:41.949Z,4.63
2022-11-20T11:43:49.490Z,4.37
2022-11-20T11:46:39.666Z,4.53
2022-11-20T11:49:28.233Z,4.63
2022-11-20T11:52:18.340Z,4.50
2022-11-20T11:55:11.880Z,4.50
2022-11-20T11:58:11.101Z,3.50
2022-11-20T12:01:03.998Z,4.70
2022-11-20T12:04:00.328Z,3.90
2022-11-20T12:06:53.438Z,4.00
2022-11-20T12:09:45.975Z,4.37
2022-11-20T12:12:38.726Z,3.37
2022-11-20T12:15:31.206Z,3.10
2022-11-20T12:18:21.180Z,2.87
2022-11-20T12:21:21.154Z,3.10
2022-11-20T12:24:30.009Z,3.13
2022-11-20T12:27:42.326Z,3.30
2022-11-20T12:30:32.792Z,2.90
2022-11-20T12:33:43.043Z,3.40
2022-11-20T12:36:39.543Z,3.50
2022-11-20T12:39:36.058Z,4.13
2022-11-20T12:43:03.810Z,2.80
2022-11-20T12:46:11.735Z,2.53
2022-11-20T12:49:14.225Z,2.37
2022-11-20T12:52:17.751Z,2.53
2022-11-20T12:55:23.792Z,2.30
2022-11-20T12:58:18.626Z,2.10
2022-11-20T13:01:34.710Z,1.70
2022-11-20T13:05:04.660Z,2.10
2022-11-20T13:07:55.677Z,2.37
2022-11-20T13:10:49.060Z,1.83
2022-11-20T13:13:45.127Z,2.03
2022-11-20T13:16:40.138Z,2.17
2022-11-20T13:19:30.562Z,1.90
2022-11-20T13:22:26.633Z,1.87
2022-11-20T13:25:26.617Z,2.70
2022-11-20T13:28:30.018Z,2.50
2022-11-20T13:31:31.985Z,2.03
2022-11-20T13:34:27.448Z,2.30
2022-11-20T13:37:27.350Z,1.90
2022-11-20T13:40:23.872Z,2.30
2022-11-20T13:43:25.082Z,2.50
2022-11-20T13:46:13.524Z,2.63
2022-11-20T13:49:11.667Z,2.00
2022-11-20T13:52:10.137Z,2.03
2022-11-20T13:55:05.934Z,2.37
2022-11-20T13:58:14.661Z,2.00
2022-11-20T14:01:11.493Z,1.83
2022-11-20T14:04:07.592Z,2.10
2022-11-20T14:06:56.304Z,2.00
2022-11-20T14:09:53.737Z,1.77
2022-11-20T14:12:42.233Z,2.23
2022-11-20T14:15:32.777Z,2.40
2022-11-20T14:18:23.621Z,2.00
2022-11-20T14:21:12.210Z,2.37
2022-11-20T14:24:07.595Z,2.10
2022-11-20T14:26:56.167Z,2.50
2022-11-20T14:29:45.877Z,1.80
2022-11-20T14:32:36.973Z,1.90
2022-11-20T14:35:28.767Z,2.00
2022-11-20T14:38:19.370Z,2.10
2022-11-20T14:41:08.928Z,2.00
2022-11-20T14:43:59.414Z,2.37
2022-11-20T14:46:47.998Z,2.13
2022-11-20T14:49:37.671Z,1.80
2022-11-20T14:52:28.975Z,2.83
2022-11-20T14:55:27.264Z,2.70
2022-11-20T14:58:24.101Z,2.10
2022-11-20T15:01:15.150Z,2.37
2022-11-20T15:04:07.791Z,1.70
2022-11-20T15:06:57.826Z,2.67
2022-11-20T15:09:47.750Z,2.40
2022-11-20T15:12:38.143Z,2.67
2022-11-20T15:15:29.746Z,2.60
2022-11-20T15:18:20.712Z,2.43
2022-11-20T15:21:13.514Z,2.27
2022-11-20T15:24:02.446Z,2.53
2022-11-20T15:26:52.900Z,2.17
2022-11-20T15:29:41.424Z,2.37
2022-11-20T15:32:29.892Z,2.30
2022-11-20T15:35:18.682Z,2.67
2022-11-20T15:38:07.316Z,2.30
2022-11-20T15:40:55.816Z,2.23
2022-11-20T15:43:46.034Z,2.10
2022-11-20T15:46:40.895Z,2.77
2022-11-20T15:49:29.584Z,2.47
2022-11-20T15:52:18.571Z,2.80
2022-11-20T15:55:09.942Z,2.33
2022-11-20T15:57:58.640Z,3.17
2022-11-20T16:00:48.533Z,3.00
2022-11-20T16:03:37.534Z,2.77
2022-11-20T16:06:26.287Z,3.03
2022-11-20T16:09:15.087Z,2.80
2022-11-20T16:12:03.803Z,2.43
2022-11-20T16:15:13.652Z,2.60
2022-11-20T16:18:04.028Z,2.90
2022-11-20T16:20:54.122Z,2.90
2022-11-20T16:23:43.354Z,3.40
2022-11-20T16:26:31.910Z,2.93
2022-11-20T16:29:20.641Z,3.70
2022-11-20T16:32:10.973Z,3.37
2022-11-20T16:35:00.811Z,3.33
2022-11-20T16:37:49.368Z,2.30
2022-11-20T16:40:38.046Z,2.50
2022-11-20T16:43:26.629Z,2.97
2022-11-20T16:46:16.592Z,2.23
2022-11-20T16:49:07.042Z,3.43
2022-11-20T16:51:57.033Z,2.80
2022-11-20T16:54:45.577Z,2.00
2022-11-20T16:57:35.012Z,2.63
2022-11-20T17:00:23.549Z,2.60
2022-11-20T17:03:13.663Z,3.20
2022-11-20T17:06:02.325Z,3.90
2022-11-20T17:08:53.689Z,3.80
2022-11-20T17:11:42.417Z,2.70
2022-11-20T17:14:30.934Z,3.20
2022-11-20T17:17:19.531Z,2.73
2022-11-20T17:20:09.241Z,3.30
2022-11-20T17:22:58.001Z,3.20
2022-11-20T17:25:47.878Z,3.07
2022-11-20T17:28:36.907Z,4.53
2022-11-20T17:31:26.282Z,3.50
2022-11-20T17:34:15.967Z,3.20
2022-11-20T17:37:04.451Z,3.00
2022-11-20T17:39:52.915Z,3.07
2022-11-20T17:42:42.795Z,2.90
2022-11-20T17:45:31.291Z,2.80
2022-11-20T17:48:19.784Z,3.00
2022-11-20T17:51:08.304Z,2.80
2022-11-20T17:53:58.943Z,2.97
2022-11-20T17:57:05.116Z,2.30
2022-11-20T17:59:54.924Z,2.70
2022-11-20T18:02:43.512Z,2.53
2022-11-20T18:05:32.103Z,2.83
2022-11-20T18:08:20.721Z,3.40
2022-11-20T18:11:13.427Z,3.30
2022-11-20T18:14:21.210Z,3.00
2022-11-20T18:17:12.745Z,2.73
2022-11-20T18:20:27.093Z,3.67
2022-11-20T18:23:09.792Z,2.90
2022-11-20T18:26:01.122Z,2.97
2022-11-20T18:28:49.611Z,3.97
2022-11-20T18:31:38.217Z,2.80
2022-11-20T18:34:28.588Z,2.50
2022-11-20T18:37:17.287Z,3.37
2022-11-20T18:40:06.804Z,3.43
2022-11-20T18:43:12.702Z,3.27
2022-11-20T18:46:04.455Z,3.00
2022-11-20T18:48:52.961Z,4.30
2022-11-20T18:51:44.046Z,2.90
2022-11-20T18:54:32.661Z,3.73
2022-11-20T18:57:22.286Z,2.90
2022-11-20T19:00:11.913Z,3.27
2022-11-20T19:03:00.466Z,2.90
2022-11-20T19:05:49.040Z,2.90
2022-11-20T19:08:39.017Z,3.10
2022-11-20T19:11:27.543Z,3.03
2022-11-20T19:14:16.483Z,3.33
2022-11-20T19:17:06.404Z,3.00
2022-11-20T19:19:55.441Z,3.37
2022-11-20T19:22:44.017Z,3.43
2022-11-20T19:25:37.930Z,3.10
2022-11-20T19:28:26.814Z,3.10
2022-11-20T19:31:21.551Z,3.17
2022-11-20T19:34:12.916Z,3.80
2022-11-20T19:37:02.110Z,3.47
2022-11-20T19:39:50.688Z,3.60
2022-11-20T19:42:40.561Z,3.07
2022-11-20T19:45:29.103Z,3.03
2022-11-20T19:48:17.677Z,3.77
2022-11-20T19:51:10.267Z,3.80
2022-11-20T19:54:00.098Z,3.30
2022-11-20T19:56:49.551Z,4.40
2022-11-20T19:59:39.475Z,2.93
2022-11-20T20:02:28.150Z,3.40
2022-11-20T20:05:16.894Z,4.03
2022-11-20T20:08:05.965Z,3.50
2022-11-20T20:10:59.366Z,3.30
2022-11-20T20:13:48.856Z,3.37
2022-11-20T20:16:38.817Z,3.43
2022-11-20T20:19:27.446Z,3.67
2022-11-20T20:22:15.967Z,4.03
2022-11-20T20:25:04.814Z,3.70
2022-11-20T20:27:53.356Z,3.43
2022-11-20T20:30:42.014Z,3.93
2022-11-20T20:33:32.163Z,3.70
2022-11-20T20:36:21.970Z,2.93
2022-11-20T20:39:11.445Z,3.20
2022-11-20T20:42:00.043Z,3.63
2022-11-20T20:45:05.985Z,3.10
2022-11-20T20:47:55.892Z,2.60
2022-11-20T20:50:54.528Z,3.37
2022-11-20T20:53:43.028Z,3.43
2022-11-20T20:56:31.555Z,3.73
2022-11-20T20:59:20.027Z,3.10
2022-11-20T21:02:08.830Z,3.93
2022-11-20T21:04:57.829Z,3.40
2022-11-20T21:08:05.325Z,3.10
2022-11-20T21:10:54.695Z,4.30
2022-11-20T21:13:44.472Z,3.63
2022-11-20T21:16:41.076Z,3.77
2022-11-20T21:19:29.781Z,3.73
2022-11-20T21:22:17.381Z,4.53
2022-11-20T21:25:08.258Z,4.10
2022-11-20T21:27:56.823Z,4.07
2022-11-20T21:30:45.332Z,4.07
2022-11-20T21:33:39.055Z,3.23
2022-11-20T21:36:29.485Z,3.27
2022-11-20T21:39:18.840Z,3.40
2022-11-20T21:42:08.774Z,3.00
2022-11-20T21:44:57.294Z,3.27
2022-11-20T21:47:45.837Z,2.67
2022-11-20T21:50:35.607Z,2.87
2022-11-20T21:53:24.103Z,3.20
2022-11-20T21:56:18.973Z,3.10
2022-11-20T21:59:13.233Z,3.50
2022-11-20T22:02:01.772Z,3.10
2022-11-20T22:04:50.393Z,3.40
2022-11-20T22:07:39.100Z,3.23
2022-11-20T22:10:27.893Z,3.17
2022-11-20T22:13:33.893Z,3.00
2022-11-20T22:16:24.212Z,3.00
2022-11-20T22:19:12.891Z,3.20
2022-11-20T22:22:01.419Z,3.30
2022-11-20T22:24:50.594Z,2.37
2022-11-20T22:27:39.063Z,2.60
2022-11-20T22:30:27.642Z,3.13
2022-11-20T22:33:17.486Z,2.23
2022-11-20T22:36:08.129Z,2.37
2022-11-20T22:38:57.035Z,2.10
2022-11-20T22:41:45.651Z,2.30
2022-11-20T22:44:34.090Z,2.40
2022-11-20T22:47:22.519Z,2.30
2022-11-20T22:50:12.540Z,2.40
2022-11-20T22:53:01.007Z,2.20
2022-11-20T22:55:50.262Z,2.10
2022-11-20T22:58:39.533Z,2.77
2022-11-20T23:01:29.099Z,2.23
2022-11-20T23:04:17.620Z,2.60
2022-11-20T23:07:07.495Z,2.37
2022-11-20T23:09:56.054Z,2.30
2022-11-20T23:12:44.527Z,2.13
2022-11-20T23:15:34.486Z,2.00
2022-11-20T23:18:23.083Z,2.10
2022-11-20T23:21:13.440Z,2.17
2022-11-20T23:24:03.295Z,2.33
2022-11-20T23:26:51.714Z,2.17
2022-11-20T23:29:40.197Z,2.20
2022-11-20T23:32:28.693Z,1.77
2022-11-20T23:35:17.351Z,1.83
2022-11-20T23:38:05.785Z,2.10
2022-11-20T23:40:55.616Z,2.13
2022-11-20T23:43:44.194Z,2.10
2022-11-20T23:46:32.717Z,1.90
2022-11-20T23:49:21.166Z,2.40
2022-11-20T23:52:09.702Z,2.10
2022-11-20T23:54:58.143Z,1.80
2022-11-20T23:57:47.978Z,1.90
